»·PEaware :: N734AU KSBP-KMHV

N734AU :: KSBP-KMHV

FLIGHT INFORMATION

Flight Status: Arrived
Operator: Privately registered:
United States
More flights under this callsign
Pilot: Jerome A. (17490)
Aircraft: CESSNA T210 TURBO CENTURION
(T210)
More flights by this aircraft type
Origin: KSBP San Luis Co Regl
United States
Destination: KMHV Mojave
United States
More flights between these airports :: More routes between these airports
Route: +
File this flight plan on PilotEdge
Remarks: VFR
Altitude:
(Current/Filed)
55ft
Speed:
(Current/Filed)
135kts
Departed: 10-May-18 05:01 PM
Arrived: 10-May-18 05:57 PM
Distance/Time
Traveled:
123nm/0:56
Distance/Time
To Go:
Arrived

Flight Plot

Page will automatically refresh every two minutes.

Flight plan parsing failed; only flown route is shown


Map Options




Map Legend


Flown Route
Filed Route
Departure Airport
Arrival Airport
Navaid (VOR, NDB)
Fix

Horizontal Profiles

Position Reports

Time Latitude Longitude Heading Altitude Ground
Speed
10-May-18 16:33 35.238712 -120.641222 164 215ft 0kts
10-May-18 16:34 35.238712 -120.641222 164 215ft 0kts
10-May-18 16:35 35.238712 -120.641222 164 215ft 0kts
10-May-18 16:36 35.238712 -120.641222 164 215ft 0kts
10-May-18 16:37 35.238712 -120.641222 164 215ft 0kts
10-May-18 16:38 35.238712 -120.641222 164 215ft 0kts
10-May-18 16:39 35.238712 -120.641222 164 215ft 0kts
10-May-18 16:40 35.238712 -120.641222 164 215ft 0kts
10-May-18 16:41 35.238712 -120.641222 164 215ft 0kts
10-May-18 16:42 35.238712 -120.641222 164 215ft 0kts
10-May-18 16:43 35.238712 -120.641222 164 215ft 0kts
10-May-18 16:44 35.238712 -120.641222 164 215ft 0kts
10-May-18 16:45 35.238712 -120.641222 164 215ft 0kts
10-May-18 16:46 35.238712 -120.641222 164 215ft 0kts
10-May-18 16:47 35.238712 -120.641222 164 215ft 0kts
10-May-18 16:48 35.238712 -120.641222 164 215ft 0kts
10-May-18 16:49 35.238712 -120.641222 164 215ft 0kts
10-May-18 16:50 35.238712 -120.641222 164 215ft 0kts
10-May-18 16:51 35.238712 -120.641222 164 215ft 0kts
10-May-18 16:52 35.238712 -120.641222 164 215ft 0kts
10-May-18 16:53 35.238712 -120.641222 164 215ft 0kts
10-May-18 16:54 35.238712 -120.641222 164 215ft 0kts
10-May-18 16:55 35.238712 -120.641222 164 215ft 0kts
10-May-18 16:56 35.238712 -120.641222 164 215ft 0kts
10-May-18 16:57 35.238712 -120.641222 164 215ft 0kts
10-May-18 16:58 35.236897 -120.638225 124 215ft 18kts
10-May-18 16:59 35.233875 -120.633025 125 215ft 18kts
10-May-18 17:00 35.233248 -120.632399 201 215ft 0kts
10-May-18 17:01 35.235846 -120.638521 303 237ft 72kts
10-May-18 17:02 35.245375 -120.662646 263 1134ft 91kts
10-May-18 17:03 35.224309 -120.676610 135 2029ft 127kts
10-May-18 17:04 35.219168 -120.639357 80 3054ft 115kts
10-May-18 17:05 35.222031 -120.600689 75 4023ft 117kts
10-May-18 17:06 35.224459 -120.559938 83 4957ft 121kts
10-May-18 17:07 35.223667 -120.516970 86 5590ft 136kts
10-May-18 17:08 35.220259 -120.467145 89 5605ft 161kts
10-May-18 17:09 35.222717 -120.411485 83 5531ft 171kts
10-May-18 17:10 35.224080 -120.354096 82 5441ft 176kts
10-May-18 17:11 35.220614 -120.294736 101 5446ft 172kts
10-May-18 17:12 35.212160 -120.245960 98 6350ft 134kts
10-May-18 17:13 35.203666 -120.200885 99 6788ft 133kts
10-May-18 17:14 35.199161 -120.154299 84 7085ft 150kts
10-May-18 17:15 35.205304 -120.102471 72 7341ft 151kts
10-May-18 17:16 35.214872 -120.051670 82 7514ft 162kts
10-May-18 17:17 35.213400 -120.001261 93 8333ft 127kts
10-May-18 17:18 35.198603 -119.961397 122 8832ft 136kts
10-May-18 17:19 35.181973 -119.915489 96 8886ft 164kts
10-May-18 17:20 35.176388 -119.863376 91 9130ft 165kts
10-May-18 17:21 35.175922 -119.811218 87 9373ft 161kts
10-May-18 17:22 35.176389 -119.756736 87 9600ft 164kts
10-May-18 17:23 35.177281 -119.700275 86 9729ft 167kts
10-May-18 17:24 35.178812 -119.642826 84 9720ft 177kts
10-May-18 17:25 35.181165 -119.582908 84 9640ft 179kts
10-May-18 17:26 35.181526 -119.522706 86 9736ft 172kts
10-May-18 17:27 35.187378 -119.465294 78 9772ft 174kts
10-May-18 17:28 35.192073 -119.406301 83 9716ft 177kts
10-May-18 17:29 35.193003 -119.346476 89 9935ft 164kts
10-May-18 17:30 35.170026 -119.297268 132 10053ft 174kts
10-May-18 17:31 35.142294 -119.250086 121 10266ft 171kts
10-May-18 17:32 35.127426 -119.195927 94 10481ft 169kts
10-May-18 17:33 35.127374 -119.139455 82 10727ft 168kts
10-May-18 17:34 35.127240 -119.082350 88 11035ft 168kts
10-May-18 17:35 35.123190 -119.026056 93 11336ft 170kts
10-May-18 17:36 35.120644 -118.968274 90 11606ft 179kts
10-May-18 17:37 35.120017 -118.909119 87 11481ft 181kts
10-May-18 17:38 35.117745 -118.864905 98 11165ft 179kts
10-May-18 17:39 35.117620 -118.863826 98 11159ft 178kts
10-May-18 17:40 35.110556 -118.805586 102 10747ft 174kts
10-May-18 17:41 35.103861 -118.747561 97 10279ft 174kts
10-May-18 17:42 35.102288 -118.688682 88 9815ft 173kts
10-May-18 17:43 35.102384 -118.629989 90 9363ft 173kts
10-May-18 17:44 35.101601 -118.571757 91 8846ft 172kts
10-May-18 17:45 35.096562 -118.513971 98 8164ft 173kts
10-May-18 17:46 35.089711 -118.456789 96 7437ft 173kts
10-May-18 17:47 35.084510 -118.400047 93 6186ft 170kts
10-May-18 17:48 35.080896 -118.352708 92 5715ft 139kts
10-May-18 17:49 35.078483 -118.303816 92 5177ft 138kts
10-May-18 17:50 35.075113 -118.262729 90 4204ft 115kts
10-May-18 17:51 35.072592 -118.222395 98 3884ft 125kts
10-May-18 17:52 35.056748 -118.183927 129 3650ft 133kts
10-May-18 17:53 35.031196 -118.159493 162 3547ft 109kts
10-May-18 17:54 35.009261 -118.136949 49 3636ft 104kts
10-May-18 17:55 35.024788 -118.109370 358 3650ft 98kts
10-May-18 17:56 35.039321 -118.124501 308 3020ft 69kts
10-May-18 17:57 35.050090 -118.137559 315 2795ft 31kts
10-May-18 17:58 35.056663 -118.145449 310 2795ft 32kts
10-May-18 17:59 35.057598 -118.148089 296 2795ft 0kts
10-May-18 18:00 35.057228 -118.149207 233 2795ft 22kts
10-May-18 18:01 35.056264 -118.150539 234 2795ft 0kts
10-May-18 18:02 35.056264 -118.150539 234 2795ft 0kts
10-May-18 18:03 35.056264 -118.150539 234 2795ft 0kts
10-May-18 18:04 35.056264 -118.150539 234 2795ft 0kts

Navigation Log

Ident Type
Flight plan parsing failed, navigation log unavailable